This is the latest recevied weather packets stored in our database for station/object JO1YDG-13. If no packets are shown the sender has not sent any weather packets the latest 10 day(s).
| Time | Temp. | Humidity | Pressure | Rain* | Wind** | Luminosity | Snow |
|---|---|---|---|---|---|---|---|
| 1777856176 | 24.44° C | 70% | 969.4 hPa | 0 mm | - | - | - |
| 1777855876 | 23.89° C | 72% | 969.4 hPa | 0 mm | - | - | - |
| 1777855576 | 23.33° C | 72% | 969.5 hPa | 0 mm | - | - | - |
| 1777855275 | 22.78° C | 73% | 969.5 hPa | 0 mm | - | - | - |
| 1777854975 | 23.33° C | 73% | 970.2 hPa | 0 mm | - | - | - |
| 1777854676 | 22.78° C | 74% | 970.2 hPa | 0 mm | - | - | - |
| 1777854376 | 22.78° C | 75% | 970.4 hPa | 0 mm | - | - | - |
| 1777854077 | 22.78° C | 76% | 970.4 hPa | 0 mm | - | - | - |
| 1777853777 | 21.11° C | 80% | 970.4 hPa | 0 mm | - | - | - |
| 1777853476 | 21.67° C | 78% | 970.4 hPa | 0.25 mm | - | - | - |
| 1777853177 | 21.67° C | 78% | 970.4 hPa | 0.25 mm | - | - | - |
| 1777852877 | 21.67° C | 79% | 970.5 hPa | 0.25 mm | - | - | - |
| 1777852577 | 21.67° C | 79% | 970.5 hPa | 0.25 mm | - | - | - |
| 1777852276 | 21.11° C | 80% | 970.5 hPa | 0.25 mm | - | - | - |
| 1777851976 | 20.56° C | 81% | 970.6 hPa | 0.25 mm | - | - | - |
| 1777851676 | 20° C | 83% | 970.6 hPa | 0.25 mm | - | - | - |
| 1777851376 | 20° C | 85% | 970.6 hPa | 0.25 mm | - | - | - |
| 1777851077 | 19.44° C | 86% | 970.6 hPa | 0.25 mm | - | - | - |
| 1777850777 | 18.89° C | 87% | 970.7 hPa | 0.25 mm | - | - | - |
| 1777850476 | 18.89° C | 88% | 970.7 hPa | 0.25 mm | - | - | - |
| 1777850175 | 18.89° C | 89% | 970.7 hPa | 0.25 mm | - | - | - |
| 1777849875 | 18.89° C | 88% | 970.6 hPa | 0.25 mm | - | - | - |
| 1777849577 | 18.89° C | 87% | 970.6 hPa | 0.25 mm | - | - | - |
| 1777849277 | 18.33° C | 89% | 970.4 hPa | 0.25 mm | - | - | - |
| 1777848977 | 18.33° C | 91% | 970.4 hPa | 0.25 mm | - | - | - |
* Rain latest hour (hover to see other rain measurements)
** Current wind speed in m/s (hover to see current wind gust speed)